Autaugaville, Alabama
Current Conditions -  °F | °C
As of 5:55 AM on Sunday 21 Dec 2014 (Local Time) from K1A9 Reporting Station
Overcast Overcast  
Wind Chill: 48°   Ceiling: 800
Heat Index: 49°   Visibility: 7mi
Dew Point: 47°   Wind: 5mph
Humidity: 92%   Direction: 50°NE
Pressure: 30.15"   Gusts: NA
Location:  32.43°N, 86.65°W
Report Text: K1A9 211155Z AUTO 05004KT 7SM OVC008 10/09 A3015 RMK AO2 T00970085 10098 20093
Loading
Personal Weather Stations






























Interactive Weather Map New forecast layout! Learn more

10-Day Weather Forecast

Advertisements
Track Severe Weather on mobile